Time;durP1;ratioP1;P1;durP2;ratioP2;P2;SDS_P1;SDS_P2;PMS_P1;PMS_P2;Temp;Humidity;BMP_temperature;BMP_pressure;BME280_temperature;BME280_humidity;BME280_pressure;Samples;Min_cycle;Max_cycle;Signal;HPM_P1;HPM_P2
2021/04/16 00:01:08;;;;;;;1.15;0.30;;;17.60;53.20;;;;;;10477529;28;20028;-52
2021/04/16 00:06:09;;;;;;;0.75;0.30;;;17.60;53.20;;;;;;10503522;28;20115;-49
2021/04/16 00:11:20;;;;;;;0.60;0.30;;;17.60;53.80;;;;;;10503709;28;20118;-51
2021/04/16 00:16:26;;;;;;;1.23;0.32;;;17.60;53.00;;;;;;10503382;28;20028;-48
2021/04/16 00:21:27;;;;;;;0.95;0.50;;;17.60;53.00;;;;;;10501867;28;20024;-51
2021/04/16 00:26:28;;;;;;;0.98;0.43;;;17.60;53.00;;;;;;10477223;28;20392;-49
2021/04/16 00:31:32;;;;;;;0.95;0.30;;;17.60;53.00;;;;;;10502657;28;20040;-50
2021/04/16 00:36:32;;;;;;;0.43;0.40;;;17.60;52.90;;;;;;10502649;28;20480;-51
2021/04/16 00:41:33;;;;;;;0.70;0.40;;;17.60;52.90;;;;;;10500548;28;20177;-50
2021/04/16 00:46:56;;;;;;;0.40;0.25;;;17.60;52.90;;;;;;10499968;28;20033;-49
2021/04/16 00:52:05;;;;;;;0.60;0.20;;;17.60;52.80;;;;;;10482411;28;20033;-47
2021/04/16 00:57:10;;;;;;;1.38;0.50;;;17.60;52.80;;;;;;10481987;28;20051;-48
2021/04/16 01:02:11;;;;;;;0.98;0.65;;;17.60;52.80;;;;;;10482056;28;20028;-47
2021/04/16 01:07:13;;;;;;;0.60;0.40;;;17.60;52.80;;;;;;10501063;28;20108;-51
2021/04/16 01:12:14;;;;;;;0.82;0.38;;;17.60;52.80;;;;;;10481249;28;20040;-48
2021/04/16 01:17:16;;;;;;;0.45;0.40;;;17.60;52.80;;;;;;10481018;28;20020;-50
2021/04/16 01:22:21;;;;;;;1.25;0.20;;;17.60;52.70;;;;;;10480262;28;20091;-47
2021/04/16 01:27:22;;;;;;;0.38;0.20;;;17.60;52.70;;;;;;10469822;28;20053;-49
2021/04/16 01:32:27;;;;;;;4.00;0.77;;;17.60;52.70;;;;;;10497991;28;20085;-47
2021/04/16 01:37:29;;;;;;;0.80;0.38;;;17.60;53.30;;;;;;10472548;28;20107;-48
2021/04/16 01:42:29;;;;;;;0.80;0.40;;;17.60;52.70;;;;;;10455008;28;568832;-47
2021/04/16 01:47:30;;;;;;;0.88;0.55;;;17.60;52.60;;;;;;10499774;28;20074;-51
2021/04/16 01:52:33;;;;;;;0.80;0.32;;;17.60;52.50;;;;;;10498625;28;20115;-48
2021/04/16 01:57:35;;;;;;;0.30;0.20;;;17.60;52.40;;;;;;10499613;28;20082;-51
2021/04/16 02:02:36;;;;;;;1.10;0.30;;;17.60;52.30;;;;;;10481074;28;20036;-49
2021/04/16 02:07:37;;;;;;;1.05;0.65;;;17.60;52.30;;;;;;10499018;28;20475;-50
2021/04/16 02:12:38;;;;;;;1.38;0.65;;;17.70;52.40;;;;;;10498535;28;20437;-49
2021/04/16 02:17:39;;;;;;;0.95;0.30;;;17.60;52.30;;;;;;10498387;28;20025;-47
2021/04/16 02:22:39;;;;;;;0.80;0.40;;;17.60;52.30;;;;;;10466888;28;20108;-48
2021/04/16 02:27:40;;;;;;;0.40;0.30;;;17.60;52.30;;;;;;10497937;28;20178;-50
2021/04/16 02:32:41;;;;;;;0.65;0.20;;;17.60;52.20;;;;;;10508158;28;20037;-53
2021/04/16 02:37:42;;;;;;;0.30;0.30;;;17.60;52.20;;;;;;10497947;28;20020;-53
2021/04/16 02:42:42;;;;;;;0.40;0.30;;;17.60;52.20;;;;;;10497172;28;20052;-53
2021/04/16 02:47:43;;;;;;;0.95;0.40;;;17.60;52.20;;;;;;10497462;28;20093;-52
2021/04/16 02:52:44;;;;;;;0.32;0.30;;;17.60;52.20;;;;;;10497490;28;20094;-53
2021/04/16 02:57:44;;;;;;;0.55;0.30;;;17.60;52.20;;;;;;10497699;28;20034;-49
2021/04/16 03:02:45;;;;;;;0.98;0.52;;;17.60;52.20;;;;;;10496943;28;20036;-48
2021/04/16 03:07:46;;;;;;;0.47;0.30;;;17.60;52.10;;;;;;10497045;28;20035;-52
2021/04/16 03:12:47;;;;;;;0.70;0.40;;;17.60;52.10;;;;;;10479000;28;20144;-51
2021/04/16 03:17:48;;;;;;;0.70;0.35;;;17.60;52.00;;;;;;10479289;28;20095;-51
2021/04/16 03:22:49;;;;;;;1.58;0.47;;;17.70;52.00;;;;;;10508437;28;20036;-50
2021/04/16 03:27:50;;;;;;;0.57;0.40;;;17.70;51.90;;;;;;10496807;28;20479;-47
2021/04/16 03:32:51;;;;;;;1.00;0.30;;;17.70;51.90;;;;;;10496271;28;20120;-47
2021/04/16 03:37:52;;;;;;;0.88;0.30;;;17.60;51.90;;;;;;10496310;28;20388;-48
2021/04/16 03:42:53;;;;;;;0.20;0.20;;;17.60;51.90;;;;;;10496088;28;20048;-49
2021/04/16 03:47:55;;;;;;;0.32;0.30;;;17.60;51.90;;;;;;10496595;28;20036;-47
2021/04/16 03:52:57;;;;;;;0.40;0.30;;;17.60;51.80;;;;;;10496170;28;20102;-48
2021/04/16 03:57:58;;;;;;;0.40;0.30;;;17.60;51.90;;;;;;10495982;28;20111;-51
2021/04/16 04:02:59;;;;;;;0.63;0.35;;;17.60;51.80;;;;;;10478290;28;20119;-49
2021/04/16 04:08:00;;;;;;;0.73;0.40;;;17.60;51.80;;;;;;10496050;28;20040;-47
2021/04/16 04:13:01;;;;;;;0.40;0.40;;;17.70;51.80;;;;;;10495685;28;20361;-52
2021/04/16 04:18:05;;;;;;;0.50;0.43;;;17.60;51.70;;;;;;10499562;28;20094;-48
2021/04/16 04:23:07;;;;;;;0.50;0.30;;;17.60;51.70;;;;;;10487453;28;20373;-48
2021/04/16 04:28:08;;;;;;;0.47;0.20;;;17.60;51.70;;;;;;10496179;28;20040;-47
2021/04/16 04:33:09;;;;;;;0.35;0.20;;;17.60;51.70;;;;;;10495285;28;20044;-48
2021/04/16 04:38:10;;;;;;;0.65;0.30;;;17.60;51.70;;;;;;10473108;28;20484;-48
2021/04/16 04:43:11;;;;;;;0.40;0.28;;;17.60;51.60;;;;;;10493930;28;20131;-51
2021/04/16 04:48:11;;;;;;;0.68;0.30;;;17.70;51.60;;;;;;10477064;28;20021;-48
2021/04/16 04:53:12;;;;;;;0.30;0.20;;;17.60;51.50;;;;;;10498130;28;20066;-50
2021/04/16 04:58:13;;;;;;;0.45;0.30;;;17.70;51.60;;;;;;10499352;28;20035;-53
2021/04/16 05:03:14;;;;;;;0.75;0.30;;;17.60;51.50;;;;;;10498821;28;20104;-51
2021/04/16 05:08:14;;;;;;;0.57;0.30;;;17.60;52.00;;;;;;10500400;28;20037;-52
2021/04/16 05:13:15;;;;;;;1.20;0.40;;;17.60;52.60;;;;;;10500298;28;20025;-52
2021/04/16 05:18:16;;;;;;;2.97;0.35;;;17.60;53.00;;;;;;10500132;28;20024;-50
2021/04/16 05:23:16;;;;;;;5.82;0.50;;;17.60;54.50;;;;;;10500701;28;20064;-53
2021/04/16 05:28:17;;;;;;;2.55;0.52;;;17.60;53.90;;;;;;10499178;28;20133;-49
2021/04/16 05:33:18;;;;;;;5.40;1.00;;;17.60;56.40;;;;;;10500397;28;20043;-51
2021/04/16 05:38:18;;;;;;;6.90;1.48;;;17.70;55.30;;;;;;10500503;28;20036;-48
2021/04/16 05:43:19;;;;;;;6.47;0.95;;;17.70;55.30;;;;;;10499631;28;20198;-57
2021/04/16 05:48:20;;;;;;;11.77;2.00;;;17.70;54.90;;;;;;10499434;28;20025;-56
2021/04/16 05:53:21;;;;;;;26.17;2.75;;;17.70;54.60;;;;;;10498245;28;20031;-55
2021/04/16 05:58:22;;;;;;;15.75;2.47;;;17.70;54.60;;;;;;10498713;28;20039;-56
2021/04/16 06:03:23;;;;;;;16.33;2.50;;;17.70;54.80;;;;;;10498410;28;20028;-54
2021/04/16 06:08:23;;;;;;;28.40;2.60;;;17.70;54.70;;;;;;10472253;28;20063;-56
2021/04/16 06:13:24;;;;;;;18.15;2.33;;;17.80;54.30;;;;;;10496945;28;20506;-56
2021/04/16 06:18:25;;;;;;;17.88;3.00;;;17.80;54.30;;;;;;10498281;28;20043;-50
2021/04/16 06:23:25;;;;;;;18.50;2.33;;;17.80;54.80;;;;;;10495585;28;20111;-55
2021/04/16 06:28:27;;;;;;;16.40;2.42;;;17.90;54.70;;;;;;10497986;28;20114;-52
2021/04/16 06:33:31;;;;;;;13.15;2.17;;;18.00;55.60;;;;;;10497728;28;20021;-54
2021/04/16 06:38:40;;;;;;;22.35;3.55;;;18.10;54.70;;;;;;10493084;28;20051;-53
2021/04/16 06:43:50;;;;;;;20.27;2.55;;;18.10;54.80;;;;;;10496083;28;20040;-53
2021/04/16 06:48:51;;;;;;;21.88;2.92;;;18.10;55.60;;;;;;10496380;28;20059;-51
2021/04/16 06:54:00;;;;;;;18.85;2.92;;;18.10;56.30;;;;;;10496946;28;20512;-52
2021/04/16 06:59:22;;;;;;;;;;;18.10;56.00;;;;;;10478364;28;20037;-54
2021/04/16 07:04:39;;;;;;;15.48;2.83;;;18.10;56.00;;;;;;10493334;28;19912;-54
2021/04/16 07:09:44;;;;;;;21.85;3.63;;;18.10;55.80;;;;;;10496209;28;20412;-53
2021/04/16 07:14:50;;;;;;;14.23;2.58;;;18.00;56.30;;;;;;10457473;28;20025;-47
2021/04/16 07:19:52;;;;;;;12.80;2.40;;;18.10;56.40;;;;;;10478009;28;20024;-55
2021/04/16 07:24:53;;;;;;;13.77;2.25;;;18.00;56.60;;;;;;10496603;28;20023;-54
2021/04/16 07:29:57;;;;;;;13.10;1.83;;;18.10;56.00;;;;;;10495684;28;20384;-54
2021/04/16 07:35:27;;;;;;;13.07;1.92;;;18.10;56.00;;;;;;10448465;28;20443;-56
2021/04/16 07:40:32;;;;;;;11.88;2.17;;;18.00;55.70;;;;;;10495744;28;20110;-54
2021/04/16 07:45:39;;;;;;;16.00;2.30;;;18.10;55.60;;;;;;10496305;28;20472;-53
2021/04/16 07:50:53;;;;;;;10.90;3.10;;;18.10;55.50;;;;;;10497633;28;20024;-55
2021/04/16 07:56:16;;;;;;;10.57;2.45;;;18.10;56.60;;;;;;10482720;28;20033;-53
2021/04/16 08:01:25;;;;;;;13.05;2.35;;;18.00;55.90;;;;;;10503645;28;20035;-54
2021/04/16 08:06:42;;;;;;;13.32;2.45;;;18.00;56.80;;;;;;10487034;28;20032;-50
2021/04/16 08:11:43;;;;;;;19.70;4.30;;;18.00;56.60;;;;;;10503700;28;20475;-55
2021/04/16 08:17:13;;;;;;;11.18;2.70;;;18.00;57.10;;;;;;10503228;28;20121;-51
2021/04/16 08:22:32;;;;;;;19.30;2.92;;;18.00;56.80;;;;;;10484731;28;20448;-53
2021/04/16 08:27:52;;;;;;;16.83;3.35;;;17.90;57.10;;;;;;10487735;28;20049;-54
2021/04/16 08:33:16;;;;;;;;;;;17.80;57.40;;;;;;10487468;28;20029;-53
2021/04/16 08:38:23;;;;;;;13.75;2.00;;;17.80;57.90;;;;;;10483490;28;19927;-50
2021/04/16 08:43:43;;;;;;;17.60;3.38;;;17.80;57.80;;;;;;10496739;28;20044;-52
2021/04/16 08:48:51;;;;;;;16.33;3.50;;;17.80;58.00;;;;;;10497467;28;20043;-53
2021/04/16 08:54:01;;;;;;;14.65;1.83;;;17.80;58.10;;;;;;10501616;28;20029;-55
2021/04/16 08:59:15;;;;;;;9.50;2.22;;;17.80;57.90;;;;;;10483857;28;20028;-55
2021/04/16 09:04:32;;;;;;;11.80;1.95;;;17.70;57.30;;;;;;10483037;28;20028;-52
2021/04/16 09:09:53;;;;;;;5.53;1.40;;;17.70;56.60;;;;;;10500280;28;20036;-51
2021/04/16 09:14:56;;;;;;;7.63;1.58;;;17.80;56.30;;;;;;10483450;28;20040;-52
2021/04/16 09:20:00;;;;;;;11.05;2.80;;;17.80;56.30;;;;;;10482506;28;20039;-51
2021/04/16 09:25:04;;;;;;;10.60;1.65;;;17.80;56.50;;;;;;10500380;28;20038;-52
2021/04/16 09:30:08;;;;;;;9.85;1.73;;;17.80;56.60;;;;;;10500541;28;20465;-54
2021/04/16 09:35:18;;;;;;;8.32;1.25;;;17.70;56.70;;;;;;10500350;28;20741;-52
2021/04/16 09:45:28;;;;;;;6.65;1.45;;;17.70;56.90;;;;;;10500026;28;20046;-52
2021/04/16 09:50:35;;;;;;;;;;;17.70;56.70;;;;;;10500307;28;20032;-48
2021/04/16 09:56:00;;;;;;;7.38;1.58;;;17.70;56.70;;;;;;10482330;28;19912;-52
2021/04/16 10:01:16;;;;;;;5.25;0.90;;;17.60;56.60;;;;;;10499508;28;20028;-53
2021/04/16 10:06:29;;;;;;;4.13;1.30;;;17.70;56.70;;;;;;10477571;28;20472;-57
2021/04/16 10:11:31;;;;;;;4.05;0.98;;;17.70;56.50;;;;;;10497018;28;20039;-53
2021/04/16 10:16:32;;;;;;;6.47;1.05;;;17.70;56.50;;;;;;10497324;28;20028;-52
2021/04/16 10:21:33;;;;;;;3.67;0.70;;;17.70;56.40;;;;;;10474589;28;20024;-51
2021/04/16 12:41:51;;;;;;;6.57;0.80;;;18.00;54.50;;;;;;10500356;28;20048;-58
2021/04/16 12:46:54;;;;;;;4.00;1.50;;;18.00;54.10;;;;;;10485044;28;20082;-58
2021/04/16 12:51:54;;;;;;;2.67;0.75;;;18.00;53.80;;;;;;10475045;28;20024;-58
2021/04/16 12:56:55;;;;;;;2.10;1.05;;;18.00;53.50;;;;;;10501675;28;20041;-58
2021/04/16 13:01:57;;;;;;;5.97;1.50;;;18.00;53.30;;;;;;10484137;28;20029;-58
2021/04/16 13:06:59;;;;;;;1.63;0.75;;;18.10;53.20;;;;;;10501548;28;20025;-58
2021/04/16 13:12:00;;;;;;;4.38;1.17;;;18.00;53.00;;;;;;10481647;28;20028;-58
2021/04/16 13:17:01;;;;;;;6.63;1.30;;;18.00;52.00;;;;;;10501348;28;20464;-56
2021/04/16 13:22:11;;;;;;;5.30;1.10;;;18.00;51.10;;;;;;10500377;28;20037;-55
2021/04/16 13:27:20;;;;;;;3.38;1.00;;;18.00;51.30;;;;;;10500715;28;20028;-57
2021/04/16 13:32:41;;;;;;;3.43;0.90;;;18.00;51.50;;;;;;10500596;28;20389;-57
2021/04/16 13:37:42;;;;;;;4.13;0.73;;;18.10;51.80;;;;;;10500246;28;20036;-57
2021/04/16 13:42:43;;;;;;;4.88;0.95;;;18.00;51.90;;;;;;10482070;28;20060;-56
2021/04/16 13:47:45;;;;;;;4.85;1.08;;;18.10;52.10;;;;;;10498940;28;20052;-57
2021/04/16 13:52:46;;;;;;;2.35;0.60;;;18.10;52.20;;;;;;10499884;28;20453;-56
2021/04/16 13:57:47;;;;;;;2.90;0.88;;;18.10;52.30;;;;;;10481697;28;20098;-57
2021/04/16 14:02:52;;;;;;;1.80;0.88;;;18.10;52.40;;;;;;10499139;28;20033;-56
2021/04/16 14:07:56;;;;;;;12.38;1.20;;;18.00;52.50;;;;;;10498789;28;20036;-56
2021/04/16 14:12:56;;;;;;;2.35;0.88;;;18.10;52.60;;;;;;10468575;28;20036;-56
2021/04/16 14:18:01;;;;;;;2.53;0.85;;;18.10;52.70;;;;;;10498407;28;20012;-56
2021/04/16 14:23:06;;;;;;;4.22;0.60;;;18.10;52.90;;;;;;10497998;28;20037;-57
2021/04/16 14:28:09;;;;;;;1.98;0.68;;;18.00;52.90;;;;;;10498079;28;20031;-57
2021/04/16 14:33:33;;;;;;;1.83;0.70;;;18.00;53.10;;;;;;10497553;28;20037;-57
2021/04/16 14:38:34;;;;;;;2.30;0.57;;;18.00;53.10;;;;;;10498098;28;20048;-56
2021/04/16 14:43:35;;;;;;;6.55;0.80;;;18.00;52.90;;;;;;10497656;28;20048;-53
2021/04/16 14:48:36;;;;;;;12.75;1.00;;;18.00;52.80;;;;;;10479854;28;20499;-56
2021/04/16 14:53:52;;;;;;;6.25;0.90;;;17.90;52.40;;;;;;10479462;28;20034;-57
2021/04/16 14:59:42;;;;;;;2.13;0.90;;;17.90;52.20;;;;;;10491490;28;20125;-58
2021/04/16 15:04:43;;;;;;;3.53;0.90;;;17.90;52.30;;;;;;10488647;28;20044;-55
2021/04/16 15:10:05;;;;;;;4.47;1.10;;;17.90;52.40;;;;;;10496726;28;20103;-58
2021/04/16 15:15:12;;;;;;;5.90;1.13;;;17.90;52.60;;;;;;10495938;28;20029;-57
2021/04/16 15:20:14;;;;;;;3.95;1.20;;;17.90;53.60;;;;;;10495325;28;20046;-59
2021/04/16 15:25:15;;;;;;;15.63;1.48;;;17.90;52.80;;;;;;10495853;28;20024;-59
2021/04/16 15:30:31;;;;;;;12.05;1.77;;;17.90;53.60;;;;;;10473769;28;20485;-59
2021/04/16 15:46:31;;;;;;;18.90;1.70;;;18.00;55.90;;;;;;10481856;28;20278;-54
2021/04/16 15:51:33;;;;;;;24.70;7.13;;;18.00;54.50;;;;;;10480189;28;20063;-55
2021/04/16 15:56:38;;;;;;;20.88;10.60;;;18.00;55.50;;;;;;10477979;28;20523;-55
2021/04/16 16:01:41;;;;;;;9.93;6.57;;;18.00;60.50;;;;;;10495565;28;20051;-57
2021/04/16 16:06:43;;;;;;;16.63;7.88;;;18.10;57.80;;;;;;10495532;28;20025;-53
2021/04/16 16:12:11;;;;;;;12.85;7.38;;;18.10;61.90;;;;;;10497338;28;20025;-55
2021/04/16 16:17:18;;;;;;;14.45;5.15;;;18.20;59.60;;;;;;10471862;28;20108;-56
2021/04/16 16:22:19;;;;;;;14.88;4.10;;;18.10;58.10;;;;;;10503136;28;20044;-57
2021/04/16 16:27:26;;;;;;;9.48;4.00;;;18.10;57.20;;;;;;10485300;28;20545;-55
2021/04/16 16:32:32;;;;;;;11.75;4.03;;;18.10;57.20;;;;;;10502215;28;20501;-57
2021/04/16 16:37:33;;;;;;;10.60;4.00;;;18.10;57.20;;;;;;10481852;28;20036;-57
2021/04/16 16:42:39;;;;;;;14.38;3.33;;;18.00;56.70;;;;;;10484034;28;20052;-57
2021/04/16 16:47:40;;;;;;;14.50;3.67;;;17.90;57.10;;;;;;10502072;28;20095;-56
2021/04/16 16:52:41;;;;;;;9.02;3.05;;;17.90;57.30;;;;;;10501868;28;20086;-57
2021/04/16 16:57:42;;;;;;;7.68;3.38;;;17.90;57.20;;;;;;10501851;28;20028;-58
2021/04/16 17:02:42;;;;;;;12.55;2.78;;;17.90;57.30;;;;;;10501441;28;20040;-57
2021/04/16 17:07:43;;;;;;;14.90;3.85;;;17.90;57.40;;;;;;10501210;28;20120;-52
2021/04/16 17:12:44;;;;;;;10.73;2.58;;;17.90;58.00;;;;;;10500120;28;20029;-57
2021/04/16 17:17:45;;;;;;;12.02;2.58;;;17.80;57.30;;;;;;10499879;28;20040;-56
2021/04/16 17:22:46;;;;;;;7.38;2.47;;;17.80;57.20;;;;;;10491471;28;20123;-57
2021/04/16 17:27:51;;;;;;;3.88;2.33;;;17.80;56.90;;;;;;10490459;28;20107;-56
2021/04/16 17:32:51;;;;;;;9.65;2.22;;;17.80;56.90;;;;;;10474301;28;20476;-54
2021/04/16 17:37:52;;;;;;;7.78;2.03;;;17.70;56.90;;;;;;10491895;28;20041;-57
2021/04/16 17:43:02;;;;;;;7.38;3.03;;;17.70;56.90;;;;;;10492808;28;20508;-56
2021/04/16 17:48:03;;;;;;;;;;;17.70;56.70;;;;;;10476226;28;20519;-57
2021/04/16 17:53:05;;;;;;;4.45;1.88;;;17.70;56.40;;;;;;10492576;28;19927;-56
2021/04/16 17:58:21;;;;;;;3.92;1.85;;;17.70;56.40;;;;;;10492583;28;20414;-56
2021/04/16 18:03:24;;;;;;;3.55;1.40;;;17.70;56.30;;;;;;10492245;28;20499;-57
2021/04/16 18:08:25;;;;;;;2.95;1.42;;;17.70;55.80;;;;;;10491209;28;20055;-58
2021/04/16 18:13:29;;;;;;;3.65;1.63;;;17.80;55.70;;;;;;10495315;28;20032;-56
2021/04/16 18:18:29;;;;;;;3.25;1.67;;;17.80;55.40;;;;;;10498705;28;20024;-57
2021/04/16 18:23:59;;;;;;;4.35;1.73;;;17.80;55.10;;;;;;10498462;28;20033;-56
2021/04/16 18:29:00;;;;;;;3.88;1.50;;;17.90;55.90;;;;;;10477487;28;20056;-56
2021/04/16 18:34:01;;;;;;;5.97;1.65;;;18.00;55.90;;;;;;10470637;28;20032;-57
2021/04/16 18:39:15;;;;;;;8.68;2.35;;;18.00;56.20;;;;;;10497002;28;20021;-57
2021/04/16 18:44:32;;;;;;;3.05;1.40;;;18.00;56.10;;;;;;10459831;28;20068;-57
2021/04/16 18:49:33;;;;;;;8.57;1.75;;;18.00;56.20;;;;;;10476709;28;20036;-57
2021/04/16 18:54:38;;;;;;;7.95;1.77;;;18.00;55.90;;;;;;10476311;28;20028;-57
2021/04/16 18:59:39;;;;;;;7.07;1.60;;;17.90;56.50;;;;;;10495972;28;20115;-56
2021/04/16 19:04:40;;;;;;;3.75;1.50;;;17.90;56.70;;;;;;10495711;28;20031;-56
2021/04/16 19:09:51;;;;;;;6.75;1.55;;;17.90;56.30;;;;;;10478699;28;20365;-56
2021/04/16 19:14:55;;;;;;;6.75;1.75;;;17.80;55.80;;;;;;10495158;28;20031;-57
2021/04/16 19:19:59;;;;;;;3.60;1.45;;;17.80;55.80;;;;;;10493816;28;20016;-57
2021/04/16 19:25:11;;;;;;;8.27;1.80;;;17.80;55.90;;;;;;10495737;28;20031;-56
2021/04/16 19:30:18;;;;;;;9.73;1.70;;;17.80;55.80;;;;;;10493995;28;20086;-56
2021/04/16 19:35:19;;;;;;;4.38;1.50;;;17.70;56.00;;;;;;10494206;28;20078;-56
2021/04/16 19:40:33;;;;;;;4.40;1.30;;;17.70;56.00;;;;;;10494814;28;20390;-57
2021/04/16 19:45:35;;;;;;;4.88;1.77;;;17.70;56.00;;;;;;10495311;28;20040;-57
2021/04/16 19:51:52;;;;;;;4.30;1.67;;;17.60;56.00;;;;;;10503956;28;20056;-55
2021/04/16 20:13:38;;;;;;;2.78;1.15;;;17.50;56.00;;;;;;10503726;28;20111;-57
2021/04/16 20:17:20;;;;;;;4.13;1.10;;;17.50;56.00;;;;;;10485739;28;20048;-57
2021/04/16 20:22:24;;;;;;;4.50;1.33;;;17.50;56.00;;;;;;10486759;28;20495;-57
2021/04/16 20:27:27;;;;;;;3.33;1.63;;;17.50;56.10;;;;;;10481663;28;20558;-57
2021/04/16 20:32:34;;;;;;;4.82;1.40;;;17.50;56.20;;;;;;10485340;28;20064;-57
2021/04/16 20:37:36;;;;;;;4.43;1.25;;;17.50;55.90;;;;;;10485557;28;20408;-57
2021/04/16 20:42:37;;;;;;;2.85;1.30;;;17.50;55.70;;;;;;10502635;28;20054;-57
2021/04/16 20:47:38;;;;;;;3.30;1.48;;;17.60;55.70;;;;;;10502337;28;20033;-58
2021/04/16 20:52:46;;;;;;;2.75;1.30;;;17.50;55.70;;;;;;10484776;28;20103;-57
2021/04/16 20:57:48;;;;;;;3.28;1.25;;;17.50;55.70;;;;;;10501481;28;20036;-57
2021/04/16 21:03:23;;;;;;;4.43;1.20;;;17.50;55.60;;;;;;10502199;28;20031;-57
2021/04/16 21:08:28;;;;;;;1.80;1.10;;;17.50;55.60;;;;;;10501302;28;20055;-57
2021/04/16 21:13:31;;;;;;;2.20;1.20;;;17.50;55.60;;;;;;10501520;28;20028;-56
2021/04/16 21:18:55;;;;;;;3.92;0.93;;;17.50;55.60;;;;;;10479560;28;20051;-57
2021/04/16 21:24:08;;;;;;;2.58;0.85;;;17.50;55.50;;;;;;10483196;28;20043;-57
2021/04/16 21:29:11;;;;;;;2.53;0.70;;;17.50;55.50;;;;;;10500840;28;20029;-57
2021/04/16 21:34:38;;;;;;;2.72;0.88;;;17.60;55.30;;;;;;10500665;28;20031;-56
2021/04/16 21:39:42;;;;;;;2.88;1.00;;;17.60;55.30;;;;;;10500221;28;20052;-57
2021/04/16 21:44:43;;;;;;;2.35;1.00;;;17.60;55.30;;;;;;10500364;28;20044;-57
2021/04/16 21:49:47;;;;;;;2.42;0.88;;;17.60;55.30;;;;;;10499710;28;20074;-57
2021/04/16 21:54:50;;;;;;;3.22;1.02;;;17.50;55.30;;;;;;10482571;28;20025;-57
2021/04/16 21:59:51;;;;;;;2.05;0.80;;;17.50;55.30;;;;;;10499549;28;20028;-57
2021/04/16 22:05:27;;;;;;;2.42;1.15;;;17.50;55.20;;;;;;10471289;28;20059;-56
2021/04/16 22:10:37;;;;;;;4.03;1.00;;;17.60;55.20;;;;;;10498492;28;20388;-57
2021/04/16 22:15:42;;;;;;;2.55;0.60;;;17.60;55.10;;;;;;10498728;28;20033;-58
2021/04/16 22:20:44;;;;;;;2.78;1.33;;;17.60;55.00;;;;;;10468191;28;20081;-57
2021/04/16 22:25:45;;;;;;;2.97;0.93;;;17.60;55.00;;;;;;10479809;28;20068;-56
2021/04/16 22:30:53;;;;;;;2.50;1.02;;;17.60;54.90;;;;;;10498112;28;20414;-56
2021/04/16 22:36:12;;;;;;;2.25;0.90;;;17.60;54.90;;;;;;10498011;28;20392;-57
2021/04/16 22:41:27;;;;;;;1.88;0.68;;;17.60;54.90;;;;;;10497908;28;20082;-56
2021/04/16 22:46:35;;;;;;;4.80;0.93;;;17.60;54.90;;;;;;10478419;28;20043;-56
2021/04/16 22:51:41;;;;;;;2.47;0.90;;;17.60;54.90;;;;;;10480481;28;20522;-57
2021/04/16 22:56:46;;;;;;;2.78;0.93;;;17.50;54.90;;;;;;10497276;28;20361;-55
2021/04/16 23:01:54;;;;;;;1.40;0.80;;;17.50;54.90;;;;;;10486236;28;20150;-56
2021/04/16 23:07:04;;;;;;;3.20;0.80;;;17.50;54.90;;;;;;10472025;28;20024;-57
2021/04/16 23:12:34;;;;;;;1.63;0.75;;;17.60;54.90;;;;;;10497007;28;20067;-57
2021/04/16 23:17:35;;;;;;;1.88;0.70;;;17.60;54.80;;;;;;10496168;28;20031;-57
2021/04/16 23:22:45;;;;;;;2.25;0.70;;;17.60;54.70;;;;;;10496643;28;20032;-57
2021/04/16 23:28:00;;;;;;;2.28;0.68;;;17.60;54.70;;;;;;10479488;28;20079;-57
2021/04/16 23:33:57;;;;;;;2.20;1.02;;;17.60;54.60;;;;;;10496712;28;20357;-57
2021/04/16 23:38:58;;;;;;;1.80;0.75;;;17.60;54.60;;;;;;10496775;28;20060;-57
2021/04/16 23:43:59;;;;;;;2.45;0.80;;;17.60;54.70;;;;;;10478425;28;20040;-57
2021/04/16 23:49:00;;;;;;;3.00;1.08;;;17.60;54.60;;;;;;10496563;28;20032;-57
2021/04/16 23:54:01;;;;;;;1.63;0.77;;;17.60;54.60;;;;;;10478096;28;20036;-57
2021/04/16 23:59:03;;;;;;;1.52;0.82;;;17.60;54.60;;;;;;10496096;28;20029;-57
